Time;durP1;ratioP1;P1;durP2;ratioP2;P2;SDS_P1;SDS_P2;PMS_P1;PMS_P2;Temp;Humidity;BMP_temperature;BMP_pressure;BME280_temperature;BME280_humidity;BME280_pressure;Samples;Min_cycle;Max_cycle;Signal;HPM_P1;HPM_P2
2023/08/15 00:00:17;;;;;;;25.27;24.07;;;25.00;99.90;;;;;;5060802;28;20505;-45
2023/08/15 00:02:45;;;;;;;26.57;25.37;;;25.00;99.90;;;;;;5061922;28;20479;-44
2023/08/15 00:05:12;;;;;;;25.90;24.70;;;24.90;99.90;;;;;;5064431;28;20531;-44
2023/08/15 00:07:39;;;;;;;26.63;25.43;;;25.00;99.90;;;;;;5063678;28;20467;-44
2023/08/15 00:10:07;;;;;;;26.20;25.17;;;25.00;99.90;;;;;;5060603;28;20480;-44
2023/08/15 00:12:34;;;;;;;24.67;23.73;;;24.90;99.90;;;;;;5060379;28;20479;-45
2023/08/15 00:15:01;;;;;;;25.37;24.27;;;24.90;99.90;;;;;;5052743;28;20468;-44
2023/08/15 00:17:28;;;;;;;24.80;23.83;;;24.90;99.90;;;;;;5060673;28;20472;-44
2023/08/15 00:19:56;;;;;;;23.83;22.83;;;24.90;99.90;;;;;;5063022;28;20487;-46
2023/08/15 00:22:23;;;;;;;24.63;23.57;;;24.90;99.90;;;;;;5063915;28;20879;-44
2023/08/15 00:24:50;;;;;;;23.70;22.60;;;24.90;99.90;;;;;;5062189;28;20479;-44
2023/08/15 00:27:18;;;;;;;23.67;22.57;;;24.90;99.90;;;;;;5060449;28;20484;-44
2023/08/15 00:29:45;;;;;;;24.13;23.23;;;24.90;99.90;;;;;;5061327;28;20491;-45
2023/08/15 00:32:12;;;;;;;23.60;22.63;;;24.90;99.90;;;;;;5065872;28;20483;-44
2023/08/15 00:34:39;;;;;;;24.70;23.80;;;24.90;99.90;;;;;;5062380;28;20502;-44
2023/08/15 00:37:07;;;;;;;25.17;24.17;;;24.90;99.90;;;;;;5063796;28;20561;-44
2023/08/15 00:39:34;;;;;;;23.40;22.50;;;24.90;99.90;;;;;;5056691;28;20970;-44
2023/08/15 00:42:01;;;;;;;23.10;22.20;;;24.90;99.90;;;;;;5063270;28;20487;-44
2023/08/15 00:44:28;;;;;;;24.20;23.20;;;24.90;99.90;;;;;;5063686;28;20463;-44
2023/08/15 00:46:55;;;;;;;22.53;21.57;;;24.90;99.90;;;;;;5061156;28;20479;-44
2023/08/15 00:49:22;;;;;;;23.87;22.87;;;24.90;99.90;;;;;;5059831;28;20484;-44
2023/08/15 00:51:50;;;;;;;24.60;23.40;;;24.90;99.90;;;;;;5061310;28;20563;-44
2023/08/15 00:54:19;;;;;;;27.67;26.60;;;24.90;99.90;;;;;;5063544;28;20474;-44
2023/08/15 00:56:45;;;;;;;26.17;24.87;;;24.90;99.90;;;;;;5062440;28;20530;-44
2023/08/15 00:59:12;;;;;;;22.97;22.00;;;24.90;99.90;;;;;;5059973;28;20785;-44
2023/08/15 01:01:40;;;;;;;24.00;23.00;;;24.90;99.90;;;;;;5059826;28;20905;-44
2023/08/15 01:04:07;;;;;;;24.53;23.20;;;24.90;99.90;;;;;;5063363;28;20479;-44
2023/08/15 01:06:34;;;;;;;27.20;26.00;;;24.90;99.90;;;;;;5063177;28;20922;-44
2023/08/15 01:09:01;;;;;;;23.00;22.10;;;24.90;99.90;;;;;;5059742;28;20894;-45
2023/08/15 01:11:40;;;;;;;24.70;23.70;;;24.80;99.90;;;;;;5058495;28;20508;-44
2023/08/15 01:14:14;;;;;;;25.33;24.23;;;24.90;99.90;;;;;;5052010;28;20467;-44
2023/08/15 01:16:44;;;;;;;24.60;23.63;;;24.80;99.90;;;;;;5060054;28;20471;-44
2023/08/15 01:19:21;;;;;;;25.63;24.50;;;24.80;99.90;;;;;;5063070;28;20975;-44
2023/08/15 01:21:52;;;;;;;24.97;23.77;;;24.80;99.90;;;;;;5060864;28;20479;-44
2023/08/15 01:24:20;;;;;;;26.07;25.07;;;24.80;99.90;;;;;;5062990;28;20994;-44
2023/08/15 01:26:47;;;;;;;24.40;23.40;;;24.80;99.90;;;;;;5061706;28;20478;-44
2023/08/15 01:29:14;;;;;;;24.10;23.30;;;24.80;99.90;;;;;;5059389;28;20495;-44
2023/08/15 01:31:47;;;;;;;25.30;24.40;;;24.80;99.90;;;;;;5059336;28;20518;-44
2023/08/15 01:34:19;;;;;;;26.67;25.67;;;24.80;99.90;;;;;;5062950;28;20467;-44
2023/08/15 01:36:49;;;;;;;25.73;24.63;;;24.80;99.90;;;;;;5061824;28;20481;-44
2023/08/15 01:39:23;;;;;;;25.50;24.53;;;24.80;99.90;;;;;;5054405;28;20486;-44
2023/08/15 01:41:53;;;;;;;25.37;24.03;;;24.80;99.90;;;;;;5060507;28;20488;-44
2023/08/15 01:44:21;;;;;;;26.10;25.07;;;24.80;99.90;;;;;;5062968;28;20483;-45
2023/08/15 01:46:48;;;;;;;25.53;24.47;;;24.80;99.90;;;;;;5061511;28;20471;-45
2023/08/15 01:49:15;;;;;;;27.07;25.73;;;24.80;99.90;;;;;;5059297;28;20480;-44
2023/08/15 01:51:42;;;;;;;26.10;25.00;;;24.80;99.90;;;;;;5059453;28;20515;-44
2023/08/15 01:54:09;;;;;;;26.93;25.83;;;24.80;99.90;;;;;;5062697;28;20467;-44
2023/08/15 01:56:37;;;;;;;28.77;27.47;;;24.70;99.90;;;;;;5062823;28;20471;-44
2023/08/15 01:59:04;;;;;;;26.70;25.70;;;24.80;99.90;;;;;;5058999;28;20484;-44
2023/08/15 02:01:31;;;;;;;25.00;24.07;;;24.80;99.90;;;;;;5059030;28;21006;-44
2023/08/15 02:03:58;;;;;;;26.67;25.50;;;24.80;99.90;;;;;;5061579;28;20449;-44
2023/08/15 02:06:25;;;;;;;26.60;25.57;;;24.70;99.90;;;;;;5062621;28;20467;-45
2023/08/15 02:08:52;;;;;;;25.93;24.83;;;24.80;99.90;;;;;;5060891;28;20478;-44
2023/08/15 02:11:19;;;;;;;27.07;25.97;;;24.70;99.90;;;;;;5058753;28;20522;-44
2023/08/15 02:13:48;;;;;;;27.27;26.17;;;24.70;99.90;;;;;;5059749;28;20444;-44
2023/08/15 02:16:15;;;;;;;26.20;25.10;;;24.70;99.90;;;;;;5062603;28;20466;-44
2023/08/15 02:18:42;;;;;;;24.80;23.60;;;24.70;99.90;;;;;;5061837;28;20486;-43
2023/08/15 02:21:08;;;;;;;24.53;23.43;;;24.70;99.90;;;;;;5059583;28;20538;-44
2023/08/15 02:23:35;;;;;;;26.17;25.07;;;24.70;99.90;;;;;;5062717;28;20475;-44
2023/08/15 02:26:02;;;;;;;25.93;24.83;;;24.70;99.90;;;;;;5062842;28;20467;-44
2023/08/15 02:28:31;;;;;;;28.20;26.93;;;24.70;99.90;;;;;;5062776;28;20446;-44
2023/08/15 02:30:59;;;;;;;26.73;25.80;;;24.70;99.90;;;;;;5064877;28;20559;-44
2023/08/15 02:33:26;;;;;;;26.40;25.27;;;24.70;99.90;;;;;;5065977;28;20511;-44
2023/08/15 02:35:53;;;;;;;27.57;26.47;;;24.70;99.90;;;;;;5064115;28;20519;-46
2023/08/15 02:38:20;;;;;;;26.10;25.00;;;24.70;99.90;;;;;;5062562;28;20476;-44
2023/08/15 02:40:48;;;;;;;25.30;24.30;;;24.70;99.90;;;;;;5063037;28;20499;-44
2023/08/15 02:43:15;;;;;;;25.90;24.80;;;24.70;99.90;;;;;;5065704;28;20467;-44
2023/08/15 02:45:42;;;;;;;24.70;23.80;;;24.70;99.90;;;;;;5065662;28;20486;-44
2023/08/15 02:48:10;;;;;;;26.23;25.13;;;24.70;99.90;;;;;;5062007;28;20483;-44
2023/08/15 02:50:37;;;;;;;25.57;24.47;;;24.70;99.90;;;;;;5062182;28;20495;-44
2023/08/15 02:53:04;;;;;;;26.37;25.27;;;24.70;99.90;;;;;;5064932;28;21016;-44
2023/08/15 02:55:33;;;;;;;24.57;23.57;;;24.70;99.90;;;;;;5065415;28;20553;-45
2023/08/15 02:58:00;;;;;;;25.93;24.63;;;24.70;99.90;;;;;;5063776;28;20475;-44
2023/08/15 03:00:27;;;;;;;24.83;23.30;;;24.70;99.90;;;;;;5062140;28;20488;-46
2023/08/15 03:02:54;;;;;;;27.87;26.67;;;24.60;99.90;;;;;;5063477;28;20948;-44
2023/08/15 03:05:22;;;;;;;27.50;26.37;;;24.70;99.90;;;;;;5065475;28;20474;-44
2023/08/15 03:07:49;;;;;;;27.00;25.80;;;24.70;99.90;;;;;;5063683;28;20484;-44
2023/08/15 03:10:16;;;;;;;25.40;24.40;;;24.70;99.90;;;;;;5065402;28;20498;-44
2023/08/15 03:12:43;;;;;;;26.07;24.87;;;24.70;99.90;;;;;;5065062;28;20507;-47
2023/08/15 03:15:10;;;;;;;26.13;24.93;;;24.60;99.90;;;;;;5061934;28;21011;-44
2023/08/15 03:17:37;;;;;;;22.83;21.93;;;24.60;99.90;;;;;;5060577;28;20483;-45
2023/08/15 03:20:06;;;;;;;25.13;24.03;;;24.70;99.90;;;;;;5064508;28;20459;-44
2023/08/15 03:22:34;;;;;;;26.90;25.80;;;24.60;99.90;;;;;;5065064;28;20809;-44
2023/08/15 03:25:01;;;;;;;26.03;25.00;;;24.60;99.90;;;;;;5062757;28;20481;-44
2023/08/15 03:27:28;;;;;;;25.07;23.97;;;24.60;99.90;;;;;;5061494;28;20475;-45
2023/08/15 03:29:55;;;;;;;24.73;23.73;;;24.60;99.90;;;;;;5063046;28;20952;-45
2023/08/15 03:32:22;;;;;;;25.37;24.43;;;24.60;99.90;;;;;;5064556;28;20924;-44
2023/08/15 03:34:49;;;;;;;25.97;24.87;;;24.60;99.90;;;;;;5063887;28;20512;-44
2023/08/15 03:37:15;;;;;;;25.10;24.00;;;24.60;99.90;;;;;;5061371;28;20490;-46
2023/08/15 03:39:44;;;;;;;24.57;23.27;;;24.60;99.90;;;;;;5061489;28;20436;-45
2023/08/15 03:42:11;;;;;;;25.33;24.33;;;24.60;99.90;;;;;;5053100;28;20543;-44
2023/08/15 03:44:38;;;;;;;24.20;23.20;;;24.60;99.90;;;;;;5061448;28;20529;-45
2023/08/15 03:47:04;;;;;;;26.13;25.00;;;24.60;99.90;;;;;;5063803;28;20479;-45
2023/08/15 03:49:31;;;;;;;22.80;21.90;;;24.60;99.90;;;;;;5064790;28;20476;-44
2023/08/15 03:51:58;;;;;;;22.87;21.93;;;24.60;99.90;;;;;;5062258;28;20490;-45
2023/08/15 03:54:25;;;;;;;23.67;22.57;;;24.60;99.90;;;;;;5061025;28;20475;-45
2023/08/15 03:56:53;;;;;;;24.70;23.60;;;24.60;99.90;;;;;;5062071;28;20475;-45
2023/08/15 03:59:21;;;;;;;25.03;23.87;;;24.60;99.90;;;;;;5064643;28;20474;-47
2023/08/15 04:01:48;;;;;;;26.77;25.30;;;24.60;99.90;;;;;;5063737;28;20546;-44
2023/08/15 04:04:15;;;;;;;26.37;25.37;;;24.60;99.90;;;;;;5060703;28;20524;-45
2023/08/15 04:06:42;;;;;;;26.90;25.80;;;24.50;99.90;;;;;;5057125;28;20503;-44
2023/08/15 04:09:09;;;;;;;26.03;24.93;;;24.50;99.90;;;;;;5063975;28;20808;-45
2023/08/15 04:11:36;;;;;;;30.10;28.70;;;24.50;99.90;;;;;;5063995;28;20884;-45
2023/08/15 04:14:04;;;;;;;30.40;29.20;;;24.50;99.90;;;;;;5061757;28;20490;-45
2023/08/15 04:16:31;;;;;;;28.33;26.83;;;24.50;99.90;;;;;;5060399;28;20476;-44
2023/08/15 04:18:58;;;;;;;28.70;27.50;;;24.50;99.90;;;;;;5062182;28;20472;-44
2023/08/15 04:21:25;;;;;;;32.27;30.87;;;24.50;99.90;;;;;;5063770;28;20499;-45
2023/08/15 04:23:51;;;;;;;31.20;29.60;;;24.50;99.90;;;;;;5063122;28;20470;-44
2023/08/15 04:26:18;;;;;;;31.97;30.27;;;24.60;99.90;;;;;;5060289;28;20491;-44
2023/08/15 04:28:46;;;;;;;32.37;30.07;;;24.60;99.90;;;;;;5060484;28;20472;-44
2023/08/15 04:31:15;;;;;;;33.10;31.40;;;24.60;99.90;;;;;;5046504;28;20467;-47
2023/08/15 04:33:42;;;;;;;31.03;29.63;;;24.60;99.90;;;;;;5059381;28;20525;-48
2023/08/15 04:36:08;;;;;;;33.00;31.03;;;24.60;99.90;;;;;;5060494;28;20489;-49
2023/08/15 04:38:36;;;;;;;32.53;30.93;;;24.70;99.90;;;;;;5060268;28;20468;-47
2023/08/15 04:41:05;;;;;;;27.10;25.27;;;24.80;99.90;;;;;;5062058;28;20468;-45
2023/08/15 04:43:32;;;;;;;29.10;27.73;;;24.90;99.90;;;;;;5063440;28;20524;-45
2023/08/15 04:45:59;;;;;;;28.10;26.97;;;24.90;99.90;;;;;;5061847;28;20886;-47
2023/08/15 04:48:27;;;;;;;28.00;26.90;;;25.00;99.90;;;;;;5060147;28;20986;-45
2023/08/15 04:50:54;;;;;;;29.27;27.93;;;25.00;99.90;;;;;;5060916;28;20499;-45
2023/08/15 04:53:21;;;;;;;30.97;28.97;;;25.10;99.90;;;;;;5063236;28;20503;-45
2023/08/15 04:55:47;;;;;;;30.17;28.67;;;25.10;99.90;;;;;;5063258;28;20530;-45
2023/08/15 04:58:14;;;;;;;31.03;29.63;;;25.20;99.90;;;;;;5060058;28;20468;-45
2023/08/15 05:00:41;;;;;;;28.30;27.20;;;25.20;99.90;;;;;;5059864;28;20491;-47
2023/08/15 05:03:08;;;;;;;31.60;30.20;;;25.20;99.90;;;;;;5062465;28;20479;-45
2023/08/15 05:05:37;;;;;;;33.13;31.63;;;25.20;99.90;;;;;;5063232;28;20818;-46
2023/08/15 05:08:06;;;;;;;29.47;28.23;;;25.10;99.90;;;;;;5060853;28;20482;-46
2023/08/15 05:10:33;;;;;;;29.00;27.80;;;25.10;99.90;;;;;;5059644;28;20475;-49
2023/08/15 05:13:01;;;;;;;28.83;27.53;;;25.10;99.90;;;;;;5061467;28;20476;-47
2023/08/15 05:15:28;;;;;;;29.07;27.87;;;25.10;99.90;;;;;;5063065;28;20494;-46
2023/08/15 05:17:55;;;;;;;30.60;29.13;;;25.10;99.90;;;;;;5062042;28;20446;-46
2023/08/15 05:20:22;;;;;;;31.43;29.73;;;25.00;99.90;;;;;;5059647;28;20464;-47
2023/08/15 05:22:51;;;;;;;31.43;29.90;;;25.00;99.90;;;;;;5059626;28;21158;-48
2023/08/15 05:25:18;;;;;;;31.27;29.97;;;25.00;99.90;;;;;;5063097;28;20569;-47
2023/08/15 05:27:45;;;;;;;30.37;29.07;;;25.00;99.90;;;;;;5062971;28;20482;-49
2023/08/15 05:30:12;;;;;;;29.80;28.60;;;25.00;99.90;;;;;;5059404;28;20498;-48
2023/08/15 05:32:39;;;;;;;31.40;30.03;;;25.00;99.90;;;;;;5059235;28;20507;-46
2023/08/15 05:35:06;;;;;;;30.00;28.80;;;24.90;99.90;;;;;;5061814;28;20440;-47
2023/08/15 05:37:33;;;;;;;31.87;30.47;;;24.90;99.90;;;;;;5062826;28;20876;-47
2023/08/15 05:40:02;;;;;;;32.23;30.87;;;24.90;99.90;;;;;;5060994;28;20490;-47
2023/08/15 05:42:29;;;;;;;29.83;28.63;;;24.90;99.90;;;;;;5059150;28;20441;-47
2023/08/15 05:44:56;;;;;;;29.13;27.93;;;24.90;99.90;;;;;;5060175;28;20582;-48
2023/08/15 05:47:23;;;;;;;30.00;28.80;;;24.90;99.90;;;;;;5062701;28;20482;-49
2023/08/15 05:49:49;;;;;;;32.10;30.80;;;24.90;99.90;;;;;;5062635;28;20481;-49
2023/08/15 05:52:16;;;;;;;31.10;29.90;;;24.80;99.90;;;;;;5059065;28;20468;-48
2023/08/15 05:54:43;;;;;;;29.90;28.70;;;24.90;99.90;;;;;;5059271;28;20476;-52
2023/08/15 05:57:11;;;;;;;29.77;28.43;;;24.80;99.90;;;;;;5064451;28;20475;-52
2023/08/15 05:59:38;;;;;;;30.17;28.87;;;24.80;99.90;;;;;;5066634;28;20474;-47
2023/08/15 06:02:05;;;;;;;32.63;31.23;;;24.80;99.90;;;;;;5064135;28;20494;-47
2023/08/15 06:04:32;;;;;;;32.17;30.87;;;24.80;99.90;;;;;;5063291;28;20974;-47
2023/08/15 06:06:59;;;;;;;32.97;31.67;;;24.80;99.90;;;;;;5064432;28;20853;-47
2023/08/15 06:09:27;;;;;;;32.57;31.17;;;24.80;99.90;;;;;;5066654;28;20870;-48
2023/08/15 06:11:53;;;;;;;31.53;30.00;;;24.80;99.90;;;;;;5065530;28;20462;-47
2023/08/15 06:14:22;;;;;;;30.60;29.30;;;24.80;99.90;;;;;;5062970;28;20507;-46
2023/08/15 06:16:49;;;;;;;31.60;30.00;;;24.80;99.90;;;;;;5063116;28;20468;-46
2023/08/15 06:19:16;;;;;;;30.10;28.90;;;24.70;99.90;;;;;;5054834;28;20927;-49
2023/08/15 06:21:43;;;;;;;32.87;31.47;;;24.70;99.90;;;;;;5062597;28;20491;-47
2023/08/15 06:24:10;;;;;;;33.27;31.97;;;24.70;99.90;;;;;;5065580;28;23390;-47
2023/08/15 06:26:38;;;;;;;35.87;34.40;;;24.70;99.90;;;;;;5066372;28;20860;-47
2023/08/15 06:29:05;;;;;;;34.97;33.57;;;24.70;99.90;;;;;;5064105;28;20470;-48
2023/08/15 06:31:34;;;;;;;31.60;30.30;;;24.70;99.90;;;;;;5062478;28;20499;-47
2023/08/15 06:34:02;;;;;;;34.30;32.90;;;24.70;99.90;;;;;;5064063;28;20475;-48
2023/08/15 06:36:29;;;;;;;34.10;32.70;;;24.70;99.90;;;;;;5066193;28;20447;-46
2023/08/15 06:38:56;;;;;;;32.90;31.40;;;24.70;99.90;;;;;;5065168;28;20435;-47
2023/08/15 06:41:23;;;;;;;35.07;33.77;;;24.70;99.90;;;;;;5062186;28;20484;-48
2023/08/15 06:43:50;;;;;;;34.23;32.87;;;24.70;99.90;;;;;;5062434;28;20472;-47
2023/08/15 06:46:17;;;;;;;33.00;31.63;;;24.70;99.90;;;;;;5054420;28;20533;-47
2023/08/15 06:48:46;;;;;;;34.20;32.67;;;24.70;99.90;;;;;;5062321;28;20509;-47
2023/08/15 06:51:13;;;;;;;31.90;30.60;;;24.70;99.90;;;;;;5065089;28;20486;-46
2023/08/15 06:53:44;;;;;;;32.90;31.60;;;24.70;99.90;;;;;;5065623;28;20502;-48
2023/08/15 06:56:11;;;;;;;32.97;31.67;;;24.70;99.90;;;;;;5063078;28;20448;-48
2023/08/15 06:58:38;;;;;;;35.33;33.90;;;24.70;99.90;;;;;;5062133;28;20534;-47
2023/08/15 07:01:06;;;;;;;34.20;32.60;;;24.70;99.90;;;;;;5063870;28;20464;-48
2023/08/15 07:03:33;;;;;;;33.53;31.73;;;24.70;99.90;;;;;;5065475;28;20435;-47
2023/08/15 07:06:03;;;;;;;33.10;31.70;;;24.70;99.90;;;;;;5064351;28;20443;-47
2023/08/15 07:08:30;;;;;;;32.90;31.50;;;24.70;99.90;;;;;;5060764;28;20994;-47
2023/08/15 07:10:57;;;;;;;34.03;32.43;;;24.70;99.90;;;;;;5062285;28;20551;-47
2023/08/15 07:13:25;;;;;;;33.70;32.37;;;24.70;99.90;;;;;;5065101;28;20507;-47
2023/08/15 07:15:55;;;;;;;31.50;30.20;;;24.60;99.90;;;;;;5065330;28;20582;-47
2023/08/15 07:18:23;;;;;;;34.73;33.30;;;24.70;99.90;;;;;;5054102;28;20498;-47
2023/08/15 07:20:50;;;;;;;31.33;30.13;;;24.70;99.90;;;;;;5061715;28;20464;-48
2023/08/15 07:23:18;;;;;;;32.40;31.10;;;24.60;99.90;;;;;;5064853;28;20439;-47
2023/08/15 07:25:45;;;;;;;34.83;33.40;;;24.60;99.90;;;;;;5065122;28;20509;-47
2023/08/15 07:28:12;;;;;;;30.63;29.43;;;24.70;99.90;;;;;;5062246;28;20501;-48
2023/08/15 07:30:41;;;;;;;33.37;32.07;;;24.70;99.90;;;;;;5061671;28;20991;-46
2023/08/15 07:33:08;;;;;;;33.53;32.03;;;24.70;99.90;;;;;;5063299;28;20522;-46
2023/08/15 07:35:35;;;;;;;33.47;32.13;;;24.60;99.90;;;;;;5065033;28;20471;-47
2023/08/15 07:38:03;;;;;;;32.40;31.00;;;24.60;99.90;;;;;;5063591;28;20870;-46
2023/08/15 07:40:31;;;;;;;33.57;32.13;;;24.60;99.90;;;;;;5061388;28;20456;-47
2023/08/15 07:42:58;;;;;;;33.40;32.10;;;24.60;99.90;;;;;;5061885;28;20472;-47
2023/08/15 07:45:25;;;;;;;33.40;32.20;;;24.60;99.90;;;;;;5064752;28;20467;-45
2023/08/15 07:47:53;;;;;;;34.33;33.03;;;24.60;99.90;;;;;;5064803;28;20474;-47
2023/08/15 07:50:22;;;;;;;32.87;31.57;;;24.70;99.90;;;;;;5052976;28;20829;-46
2023/08/15 07:52:49;;;;;;;33.93;32.63;;;24.60;99.90;;;;;;5060915;28;20532;-46
2023/08/15 07:55:17;;;;;;;32.57;31.27;;;24.60;99.90;;;;;;5064299;28;20476;-47
2023/08/15 07:57:45;;;;;;;35.17;33.57;;;24.60;99.90;;;;;;5064470;28;20853;-46
2023/08/15 08:00:13;;;;;;;34.37;33.10;;;24.60;99.90;;;;;;5061781;28;20502;-47
2023/08/15 08:02:40;;;;;;;33.43;32.13;;;24.60;99.90;;;;;;5060905;28;20444;-51
2023/08/15 08:05:09;;;;;;;33.77;32.20;;;24.60;99.90;;;;;;5062585;28;20472;-47
2023/08/15 08:07:36;;;;;;;33.97;32.60;;;24.60;99.90;;;;;;5064430;28;20439;-48
2023/08/15 08:10:04;;;;;;;33.57;32.23;;;24.60;99.90;;;;;;5062747;28;20474;-48
2023/08/15 08:12:31;;;;;;;32.73;31.53;;;24.60;99.90;;;;;;5060665;28;20458;-47
2023/08/15 08:14:59;;;;;;;33.27;31.97;;;24.60;99.90;;;;;;5061045;28;20518;-48
2023/08/15 08:17:26;;;;;;;31.77;30.43;;;24.60;99.90;;;;;;5064169;28;20965;-48
2023/08/15 08:19:54;;;;;;;30.33;29.13;;;24.60;99.90;;;;;;5063767;28;20467;-49
2023/08/15 08:22:21;;;;;;;32.00;30.60;;;24.60;99.90;;;;;;5052241;28;20436;-46
2023/08/15 08:24:50;;;;;;;32.07;30.87;;;24.60;99.90;;;;;;5060486;28;20464;-48
2023/08/15 08:27:17;;;;;;;31.23;30.03;;;24.60;99.90;;;;;;5063215;28;20436;-48
2023/08/15 08:29:44;;;;;;;31.60;30.40;;;24.70;99.90;;;;;;5064086;28;20471;-46
2023/08/15 08:32:12;;;;;;;32.37;31.17;;;24.70;99.90;;;;;;5061546;28;20506;-47
2023/08/15 08:34:39;;;;;;;32.47;31.13;;;24.70;99.90;;;;;;5060275;28;20559;-47
2023/08/15 08:37:06;;;;;;;32.17;30.90;;;24.70;99.90;;;;;;5061568;28;20445;-46
2023/08/15 08:39:33;;;;;;;33.00;31.70;;;24.70;99.90;;;;;;5063768;28;20814;-47
2023/08/15 08:42:00;;;;;;;34.23;32.93;;;24.70;99.90;;;;;;5062906;28;20459;-47
2023/08/15 08:44:30;;;;;;;32.83;31.60;;;24.70;99.90;;;;;;5060321;28;20490;-51
2023/08/15 08:46:58;;;;;;;35.73;34.43;;;24.70;99.90;;;;;;5060162;28;20966;-51
2023/08/15 08:49:28;;;;;;;36.10;34.70;;;24.70;99.90;;;;;;5063512;28;20459;-49
2023/08/15 08:51:56;;;;;;;34.90;33.57;;;24.60;99.90;;;;;;5063460;28;20462;-47
2023/08/15 08:54:24;;;;;;;34.87;33.27;;;24.60;99.90;;;;;;5051983;28;20473;-46
2023/08/15 08:56:54;;;;;;;34.07;32.67;;;24.70;99.90;;;;;;5060219;28;20915;-47
2023/08/15 08:59:23;;;;;;;36.70;35.30;;;24.70;99.90;;;;;;5063147;28;20436;-46
2023/08/15 09:01:51;;;;;;;31.60;30.00;;;24.70;99.90;;;;;;5063030;28;20556;-45
2023/08/15 09:04:19;;;;;;;32.73;31.43;;;24.70;99.90;;;;;;5060374;28;20475;-45
2023/08/15 09:06:47;;;;;;;34.30;32.90;;;24.70;99.90;;;;;;5059848;28;20446;-45
2023/08/15 09:09:14;;;;;;;36.07;34.70;;;24.70;99.90;;;;;;5061988;28;20494;-45
2023/08/15 09:11:41;;;;;;;32.67;31.37;;;24.70;99.90;;;;;;5062843;28;20494;-45
2023/08/15 09:14:09;;;;;;;33.40;32.00;;;24.70;99.90;;;;;;5061466;28;20558;-45
2023/08/15 09:16:47;;;;;;;36.97;35.53;;;24.70;99.90;;;;;;5059749;28;20525;-45
2023/08/15 09:19:14;;;;;;;33.70;32.30;;;24.70;99.90;;;;;;5062194;28;20446;-45
2023/08/15 09:21:41;;;;;;;31.30;30.10;;;24.70;99.90;;;;;;5062777;28;20893;-45
2023/08/15 09:24:10;;;;;;;31.43;30.13;;;24.70;99.90;;;;;;5061498;28;20865;-46
2023/08/15 09:26:38;;;;;;;31.97;30.77;;;24.70;99.90;;;;;;5059523;28;20514;-46
2023/08/15 09:29:05;;;;;;;33.23;32.03;;;24.70;99.90;;;;;;5060539;28;20959;-47
2023/08/15 09:31:32;;;;;;;34.97;33.67;;;24.80;99.90;;;;;;5062017;28;20542;-46
2023/08/15 09:33:59;;;;;;;33.13;31.93;;;24.80;99.90;;;;;;5062619;28;20529;-47
2023/08/15 09:36:28;;;;;;;34.67;33.27;;;24.80;99.90;;;;;;5059467;28;20473;-46
2023/08/15 09:38:58;;;;;;;36.33;35.03;;;24.80;99.90;;;;;;5059479;28;20440;-45
2023/08/15 09:41:26;;;;;;;36.00;34.53;;;24.70;99.90;;;;;;5050989;28;20460;-45
2023/08/15 09:43:54;;;;;;;35.33;34.00;;;24.70;99.90;;;;;;5059444;28;20487;-47
2023/08/15 09:46:22;;;;;;;35.83;34.47;;;24.80;99.90;;;;;;5062265;28;20471;-47
2023/08/15 09:48:51;;;;;;;33.50;32.30;;;24.80;99.90;;;;;;5062754;28;20471;-46
2023/08/15 09:51:19;;;;;;;31.70;30.50;;;24.80;99.90;;;;;;5059951;28;20463;-46
2023/08/15 09:53:47;;;;;;;33.60;32.10;;;24.80;99.90;;;;;;5059193;28;20516;-45
2023/08/15 09:56:15;;;;;;;33.60;32.37;;;24.80;99.90;;;;;;5061384;28;20468;-46
2023/08/15 09:58:43;;;;;;;33.03;31.83;;;24.80;99.90;;;;;;5062634;28;20439;-46
2023/08/15 10:01:13;;;;;;;32.10;30.80;;;24.80;99.90;;;;;;5061019;28;20467;-48
2023/08/15 10:03:41;;;;;;;31.30;30.00;;;24.80;99.90;;;;;;5059315;28;20471;-45
2023/08/15 10:06:10;;;;;;;34.10;32.80;;;24.80;99.90;;;;;;5060198;28;20865;-45
2023/08/15 10:08:39;;;;;;;33.70;32.50;;;24.80;99.90;;;;;;5062686;28;20994;-45
2023/08/15 10:11:09;;;;;;;33.20;32.00;;;24.80;99.90;;;;;;5061404;28;20506;-45
2023/08/15 10:13:37;;;;;;;34.23;32.83;;;24.80;99.90;;;;;;5058907;28;20443;-45
2023/08/15 10:16:08;;;;;;;33.57;32.27;;;24.80;99.90;;;;;;5059617;28;20472;-47
2023/08/15 10:18:35;;;;;;;34.50;33.07;;;24.80;99.90;;;;;;5062707;28;20443;-47
2023/08/15 10:21:02;;;;;;;31.83;30.60;;;24.80;99.90;;;;;;5062116;28;20962;-46
2023/08/15 10:23:30;;;;;;;36.27;34.87;;;24.80;99.90;;;;;;5058707;28;20464;-47
2023/08/15 10:25:58;;;;;;;33.77;32.53;;;24.80;99.90;;;;;;5059106;28;20507;-47
2023/08/15 10:28:27;;;;;;;32.20;31.00;;;24.80;99.90;;;;;;5062347;28;20439;-47
2023/08/15 10:30:54;;;;;;;31.60;30.40;;;24.80;99.90;;;;;;5062376;28;20487;-47
2023/08/15 10:33:24;;;;;;;35.30;33.90;;;24.90;99.90;;;;;;5059200;28;20522;-49
2023/08/15 10:36:05;;;;;;;33.70;32.40;;;24.80;99.90;;;;;;5058858;28;20554;-45
2023/08/15 10:38:35;;;;;;;36.43;35.03;;;24.80;99.90;;;;;;5051391;28;20448;-47
2023/08/15 10:41:04;;;;;;;35.17;33.80;;;24.80;99.90;;;;;;5058742;28;20947;-47
2023/08/15 10:43:33;;;;;;;36.23;34.67;;;24.90;99.90;;;;;;5064531;28;20471;-47
2023/08/15 10:46:02;;;;;;;34.37;33.17;;;24.80;99.90;;;;;;5065873;28;20435;-46
2023/08/15 10:48:43;;;;;;;36.83;35.37;;;24.90;99.90;;;;;;5054510;28;20464;-47
2023/08/15 10:51:20;;;;;;;34.43;33.17;;;24.90;99.90;;;;;;5063439;28;20539;-47
2023/08/15 10:53:48;;;;;;;35.40;34.00;;;24.90;99.90;;;;;;5065647;28;20785;-47
2023/08/15 10:56:17;;;;;;;34.60;33.33;;;24.90;99.90;;;;;;5063835;28;20443;-47
2023/08/15 10:58:45;;;;;;;34.77;33.37;;;24.90;99.90;;;;;;5062324;28;20479;-46
2023/08/15 11:01:12;;;;;;;33.80;32.50;;;24.90;99.90;;;;;;5063483;28;20498;-48
2023/08/15 11:03:41;;;;;;;35.33;33.70;;;24.90;99.90;;;;;;5065426;28;20475;-47
2023/08/15 11:06:08;;;;;;;34.77;33.47;;;24.90;99.90;;;;;;5064645;28;20471;-47
2023/08/15 11:08:41;;;;;;;35.53;34.23;;;24.90;99.90;;;;;;5061975;28;20495;-48
2023/08/15 11:11:08;;;;;;;35.47;34.17;;;24.90;99.90;;;;;;5062494;28;20983;-47
2023/08/15 11:13:38;;;;;;;38.17;36.47;;;24.90;99.90;;;;;;5065481;28;20443;-47
2023/08/15 11:16:05;;;;;;;33.00;31.80;;;24.90;99.90;;;;;;5064811;28;20566;-46
2023/08/15 11:18:33;;;;;;;32.97;31.73;;;24.90;99.90;;;;;;5061812;28;20492;-45
2023/08/15 11:21:02;;;;;;;33.17;31.77;;;24.90;99.90;;;;;;5061712;28;20496;-46
2023/08/15 11:23:29;;;;;;;32.93;31.63;;;24.90;99.90;;;;;;5053512;28;20442;-47
2023/08/15 11:26:02;;;;;;;34.27;32.97;;;24.90;99.90;;;;;;5061769;28;20464;-47
2023/08/15 11:28:29;;;;;;;33.50;32.27;;;24.90;99.90;;;;;;5053627;28;20444;-46
2023/08/15 11:30:56;;;;;;;36.00;34.60;;;24.90;99.90;;;;;;5061452;28;20487;-45
2023/08/15 11:33:24;;;;;;;34.67;33.33;;;24.90;99.90;;;;;;5064018;28;20879;-46
2023/08/15 11:35:51;;;;;;;33.10;31.80;;;24.90;99.90;;;;;;5064935;28;20489;-46
2023/08/15 11:38:19;;;;;;;33.27;31.83;;;25.00;99.90;;;;;;5062767;28;20482;-46
2023/08/15 11:40:46;;;;;;;34.17;32.90;;;25.00;99.90;;;;;;5061461;28;20460;-47
2023/08/15 11:43:15;;;;;;;37.30;35.80;;;25.00;99.90;;;;;;5062549;28;20478;-47
2023/08/15 11:45:44;;;;;;;39.37;37.90;;;25.00;99.90;;;;;;5064920;28;20431;-47
2023/08/15 11:48:12;;;;;;;37.10;35.60;;;25.00;99.90;;;;;;5063669;28;20451;-51
2023/08/15 11:50:40;;;;;;;38.90;37.50;;;25.00;99.90;;;;;;5061213;28;20487;-49
2023/08/15 11:53:11;;;;;;;38.47;37.07;;;25.00;99.90;;;;;;5061362;28;20432;-46
2023/08/15 11:55:40;;;;;;;37.57;36.10;;;25.00;99.90;;;;;;5063992;28;21012;-50
2023/08/15 11:58:23;;;;;;;36.63;35.23;;;25.00;99.90;;;;;;5064259;28;20518;-48
2023/08/15 12:00:52;;;;;;;38.17;36.77;;;25.00;99.90;;;;;;5061081;28;20456;-46
2023/08/15 12:03:19;;;;;;;39.00;37.60;;;25.00;99.90;;;;;;5062909;28;20472;-48
2023/08/15 12:05:46;;;;;;;35.90;34.50;;;25.00;99.90;;;;;;5064356;28;20475;-47
2023/08/15 12:08:15;;;;;;;34.40;33.20;;;25.00;99.90;;;;;;5063056;28;20458;-47
2023/08/15 12:10:45;;;;;;;37.23;35.73;;;25.00;99.90;;;;;;5060788;28;20464;-48
2023/08/15 12:13:13;;;;;;;39.30;37.70;;;25.00;99.90;;;;;;5061868;28;20885;-49
2023/08/15 12:15:40;;;;;;;37.27;35.87;;;25.00;99.90;;;;;;5064095;28;20479;-47
2023/08/15 12:18:07;;;;;;;36.30;34.80;;;25.10;99.90;;;;;;5063844;28;20467;-48
2023/08/15 12:20:34;;;;;;;35.20;33.90;;;25.10;99.90;;;;;;5060454;28;20464;-46
2023/08/15 12:23:01;;;;;;;36.87;35.50;;;25.10;99.90;;;;;;5060406;28;20468;-48
2023/08/15 12:25:28;;;;;;;35.23;33.83;;;25.10;99.90;;;;;;5063849;28;20463;-47
2023/08/15 12:27:56;;;;;;;37.00;35.40;;;25.10;99.90;;;;;;5064030;28;20469;-47
2023/08/15 12:30:23;;;;;;;36.20;34.90;;;25.10;99.90;;;;;;5061273;28;20462;-50